Terminal Aerodrome Forecast
Issued by NWS Detroit/Pontiac, MI

Home | Current Version | Previous Version | Text Only | Print | Product List | Glossary On
Versions: 1 2 3 4 5 6 7 8 9 10 11 12 13 14 15 16 17 18
000
FTUS43 KDTX 291100
TAFFNT
TAF
KFNT 291127Z 2912/3012 25005KT P6SM SCT060
     FM291400 27012KT P6SM -SHRA SCT035 OVC060
      TEMPO 2919/2922 4SM -SHRA OVC035
     FM292300 30007KT P6SM SCT080 BKN200
     FM300700 24005KT P6SM OVC080=

USA.gov is the U.S. government's official web portal to all federal, state and local government web resources and services.